sensor_id;sensor_type;location;lat;lon;timestamp;temperature;humidity
15357;DHT22;7778;48.792;9.260;2022-09-03T00:02:45;17.10;99.90
15357;DHT22;7778;48.792;9.260;2022-09-03T00:05:37;17.00;99.90
15357;DHT22;7778;48.792;9.260;2022-09-03T00:08:29;17.00;99.90
15357;DHT22;7778;48.792;9.260;2022-09-03T00:11:19;17.20;99.90
15357;DHT22;7778;48.792;9.260;2022-09-03T00:14:10;17.20;99.90
15357;DHT22;7778;48.792;9.260;2022-09-03T00:17:02;17.30;99.90
15357;DHT22;7778;48.792;9.260;2022-09-03T00:19:55;17.30;99.90
15357;DHT22;7778;48.792;9.260;2022-09-03T00:22:46;17.30;99.90
15357;DHT22;7778;48.792;9.260;2022-09-03T00:25:37;17.30;99.90
15357;DHT22;7778;48.792;9.260;2022-09-03T00:28:29;17.30;99.90
15357;DHT22;7778;48.792;9.260;2022-09-03T00:31:22;17.30;99.90
15357;DHT22;7778;48.792;9.260;2022-09-03T00:34:17;17.20;99.90
15357;DHT22;7778;48.792;9.260;2022-09-03T00:37:06;17.30;99.90
15357;DHT22;7778;48.792;9.260;2022-09-03T00:39:53;17.30;99.90
15357;DHT22;7778;48.792;9.260;2022-09-03T00:42:48;17.50;99.90
15357;DHT22;7778;48.792;9.260;2022-09-03T00:45:45;17.40;99.90
15357;DHT22;7778;48.792;9.260;2022-09-03T00:48:49;17.30;99.90
15357;DHT22;7778;48.792;9.260;2022-09-03T00:51:46;17.40;99.90
15357;DHT22;7778;48.792;9.260;2022-09-03T00:54:42;17.30;99.90
15357;DHT22;7778;48.792;9.260;2022-09-03T00:57:38;17.40;99.90
15357;DHT22;7778;48.792;9.260;2022-09-03T01:00:29;17.50;99.90
15357;DHT22;7778;48.792;9.260;2022-09-03T01:03:21;17.50;99.90
15357;DHT22;7778;48.792;9.260;2022-09-03T01:06:16;17.50;99.90
15357;DHT22;7778;48.792;9.260;2022-09-03T01:09:19;17.50;99.90
15357;DHT22;7778;48.792;9.260;2022-09-03T01:12:19;17.50;99.90
15357;DHT22;7778;48.792;9.260;2022-09-03T01:15:18;17.50;99.90
15357;DHT22;7778;48.792;9.260;2022-09-03T01:18:17;17.50;99.90
15357;DHT22;7778;48.792;9.260;2022-09-03T01:21:35;17.50;99.90
15357;DHT22;7778;48.792;9.260;2022-09-03T01:24:46;17.40;99.90
15357;DHT22;7778;48.792;9.260;2022-09-03T01:31:12;17.30;99.90
15357;DHT22;7778;48.792;9.260;2022-09-03T01:34:12;17.30;99.90
15357;DHT22;7778;48.792;9.260;2022-09-03T01:37:10;17.40;99.90
15357;DHT22;7778;48.792;9.260;2022-09-03T01:40:05;17.40;99.90
15357;DHT22;7778;48.792;9.260;2022-09-03T01:43:08;17.40;99.90
15357;DHT22;7778;48.792;9.260;2022-09-03T01:46:07;17.40;99.90
15357;DHT22;7778;48.792;9.260;2022-09-03T01:49:01;17.40;99.90
15357;DHT22;7778;48.792;9.260;2022-09-03T01:51:58;17.40;99.90
15357;DHT22;7778;48.792;9.260;2022-09-03T01:54:55;17.50;99.90
15357;DHT22;7778;48.792;9.260;2022-09-03T01:57:53;17.40;99.90
15357;DHT22;7778;48.792;9.260;2022-09-03T02:00:42;17.40;99.90
15357;DHT22;7778;48.792;9.260;2022-09-03T02:03:38;17.50;99.90
15357;DHT22;7778;48.792;9.260;2022-09-03T02:06:28;17.50;99.90
15357;DHT22;7778;48.792;9.260;2022-09-03T02:09:16;17.50;99.90
15357;DHT22;7778;48.792;9.260;2022-09-03T02:12:07;17.50;99.90
15357;DHT22;7778;48.792;9.260;2022-09-03T02:14:57;17.50;99.90
15357;DHT22;7778;48.792;9.260;2022-09-03T02:17:45;17.50;99.90
15357;DHT22;7778;48.792;9.260;2022-09-03T02:20:34;17.60;99.90
15357;DHT22;7778;48.792;9.260;2022-09-03T02:23:22;17.60;99.90
15357;DHT22;7778;48.792;9.260;2022-09-03T02:26:12;17.50;99.90
15357;DHT22;7778;48.792;9.260;2022-09-03T02:29:02;17.50;99.90
15357;DHT22;7778;48.792;9.260;2022-09-03T02:31:48;17.50;99.90
15357;DHT22;7778;48.792;9.260;2022-09-03T02:34:34;17.70;99.90
15357;DHT22;7778;48.792;9.260;2022-09-03T02:37:22;17.60;99.90
15357;DHT22;7778;48.792;9.260;2022-09-03T02:40:08;17.50;99.90
15357;DHT22;7778;48.792;9.260;2022-09-03T02:42:55;17.50;99.90
15357;DHT22;7778;48.792;9.260;2022-09-03T02:45:44;17.50;99.90
15357;DHT22;7778;48.792;9.260;2022-09-03T02:48:30;17.40;99.90
15357;DHT22;7778;48.792;9.260;2022-09-03T02:51:16;17.40;99.90
15357;DHT22;7778;48.792;9.260;2022-09-03T02:54:04;17.30;99.90
15357;DHT22;7778;48.792;9.260;2022-09-03T02:56:51;17.20;99.90
15357;DHT22;7778;48.792;9.260;2022-09-03T02:59:36;17.10;99.90
15357;DHT22;7778;48.792;9.260;2022-09-03T03:02:22;16.90;99.90
15357;DHT22;7778;48.792;9.260;2022-09-03T03:05:10;16.80;99.90
15357;DHT22;7778;48.792;9.260;2022-09-03T03:08:00;16.70;99.90
15357;DHT22;7778;48.792;9.260;2022-09-03T03:10:47;16.60;99.90
15357;DHT22;7778;48.792;9.260;2022-09-03T03:13:35;16.50;99.90
15357;DHT22;7778;48.792;9.260;2022-09-03T03:16:20;16.60;99.90
15357;DHT22;7778;48.792;9.260;2022-09-03T03:19:06;16.60;99.90
15357;DHT22;7778;48.792;9.260;2022-09-03T03:21:52;16.70;99.90
15357;DHT22;7778;48.792;9.260;2022-09-03T03:24:37;16.80;99.90
15357;DHT22;7778;48.792;9.260;2022-09-03T03:27:24;16.80;99.90
15357;DHT22;7778;48.792;9.260;2022-09-03T03:30:11;16.90;99.90
15357;DHT22;7778;48.792;9.260;2022-09-03T03:32:58;16.80;99.90
15357;DHT22;7778;48.792;9.260;2022-09-03T03:35:44;17.00;99.90
15357;DHT22;7778;48.792;9.260;2022-09-03T03:38:29;16.80;99.90
15357;DHT22;7778;48.792;9.260;2022-09-03T03:41:17;16.70;99.90
15357;DHT22;7778;48.792;9.260;2022-09-03T03:44:07;16.70;99.90
15357;DHT22;7778;48.792;9.260;2022-09-03T03:46:53;16.60;99.90
15357;DHT22;7778;48.792;9.260;2022-09-03T03:49:38;16.50;99.90
15357;DHT22;7778;48.792;9.260;2022-09-03T03:52:25;16.50;99.90
15357;DHT22;7778;48.792;9.260;2022-09-03T03:55:12;16.50;99.90
15357;DHT22;7778;48.792;9.260;2022-09-03T03:57:58;16.40;99.90
15357;DHT22;7778;48.792;9.260;2022-09-03T04:00:45;16.40;99.90
15357;DHT22;7778;48.792;9.260;2022-09-03T04:03:32;16.50;99.90
15357;DHT22;7778;48.792;9.260;2022-09-03T04:06:19;16.50;99.90
15357;DHT22;7778;48.792;9.260;2022-09-03T04:09:05;16.50;99.90
15357;DHT22;7778;48.792;9.260;2022-09-03T04:11:50;16.50;99.90
15357;DHT22;7778;48.792;9.260;2022-09-03T04:14:36;16.60;99.90
15357;DHT22;7778;48.792;9.260;2022-09-03T04:17:23;16.60;99.90
15357;DHT22;7778;48.792;9.260;2022-09-03T04:20:09;16.70;99.90
15357;DHT22;7778;48.792;9.260;2022-09-03T04:22:58;16.60;99.90
15357;DHT22;7778;48.792;9.260;2022-09-03T04:25:51;16.60;99.90
15357;DHT22;7778;48.792;9.260;2022-09-03T04:28:37;16.60;99.90
15357;DHT22;7778;48.792;9.260;2022-09-03T04:31:23;16.60;99.90
15357;DHT22;7778;48.792;9.260;2022-09-03T04:34:10;16.60;99.90
15357;DHT22;7778;48.792;9.260;2022-09-03T04:36:56;16.50;99.90
15357;DHT22;7778;48.792;9.260;2022-09-03T04:39:42;16.50;99.90
15357;DHT22;7778;48.792;9.260;2022-09-03T04:42:28;16.50;99.90
15357;DHT22;7778;48.792;9.260;2022-09-03T04:45:14;16.60;99.90
15357;DHT22;7778;48.792;9.260;2022-09-03T04:48:03;16.50;99.90
15357;DHT22;7778;48.792;9.260;2022-09-03T04:50:50;16.40;99.90
15357;DHT22;7778;48.792;9.260;2022-09-03T04:53:37;16.40;99.90
15357;DHT22;7778;48.792;9.260;2022-09-03T04:56:25;16.50;99.90
15357;DHT22;7778;48.792;9.260;2022-09-03T04:59:12;16.60;99.90
15357;DHT22;7778;48.792;9.260;2022-09-03T05:01:58;16.70;99.90
15357;DHT22;7778;48.792;9.260;2022-09-03T05:04:43;16.80;99.90
15357;DHT22;7778;48.792;9.260;2022-09-03T05:07:31;16.80;99.90
15357;DHT22;7778;48.792;9.260;2022-09-03T05:10:21;16.80;99.90
15357;DHT22;7778;48.792;9.260;2022-09-03T05:13:07;16.80;99.90
15357;DHT22;7778;48.792;9.260;2022-09-03T05:15:57;16.80;99.90
15357;DHT22;7778;48.792;9.260;2022-09-03T05:18:44;16.80;99.90
15357;DHT22;7778;48.792;9.260;2022-09-03T05:21:31;16.80;99.90
15357;DHT22;7778;48.792;9.260;2022-09-03T05:24:18;16.80;99.90
15357;DHT22;7778;48.792;9.260;2022-09-03T05:27:04;16.80;99.90
15357;DHT22;7778;48.792;9.260;2022-09-03T05:29:49;16.80;99.90
15357;DHT22;7778;48.792;9.260;2022-09-03T05:32:34;16.90;99.90
15357;DHT22;7778;48.792;9.260;2022-09-03T05:35:20;17.00;99.90
15357;DHT22;7778;48.792;9.260;2022-09-03T05:38:05;17.20;99.90
15357;DHT22;7778;48.792;9.260;2022-09-03T05:40:53;17.40;99.90
15357;DHT22;7778;48.792;9.260;2022-09-03T05:43:40;17.60;99.90
15357;DHT22;7778;48.792;9.260;2022-09-03T05:46:28;17.80;99.90
15357;DHT22;7778;48.792;9.260;2022-09-03T05:49:16;17.90;99.90
15357;DHT22;7778;48.792;9.260;2022-09-03T05:52:02;18.10;99.90
15357;DHT22;7778;48.792;9.260;2022-09-03T05:54:48;18.00;99.90
15357;DHT22;7778;48.792;9.260;2022-09-03T05:57:35;18.00;99.90
15357;DHT22;7778;48.792;9.260;2022-09-03T06:00:21;17.90;99.90
15357;DHT22;7778;48.792;9.260;2022-09-03T06:03:06;18.00;99.90
15357;DHT22;7778;48.792;9.260;2022-09-03T06:05:53;18.20;99.90
15357;DHT22;7778;48.792;9.260;2022-09-03T06:08:39;18.20;99.90
15357;DHT22;7778;48.792;9.260;2022-09-03T06:11:28;18.00;99.90
15357;DHT22;7778;48.792;9.260;2022-09-03T06:14:16;18.00;99.90
15357;DHT22;7778;48.792;9.260;2022-09-03T06:17:02;18.10;99.90
15357;DHT22;7778;48.792;9.260;2022-09-03T06:19:47;18.10;99.90
15357;DHT22;7778;48.792;9.260;2022-09-03T06:22:33;18.10;99.90
15357;DHT22;7778;48.792;9.260;2022-09-03T06:25:19;18.00;99.90
15357;DHT22;7778;48.792;9.260;2022-09-03T06:28:04;17.90;99.90
15357;DHT22;7778;48.792;9.260;2022-09-03T06:30:56;17.90;99.90
15357;DHT22;7778;48.792;9.260;2022-09-03T06:33:43;18.00;99.90
15357;DHT22;7778;48.792;9.260;2022-09-03T06:36:30;17.90;99.90
15357;DHT22;7778;48.792;9.260;2022-09-03T06:39:16;18.00;99.90
15357;DHT22;7778;48.792;9.260;2022-09-03T06:42:01;18.10;99.90
15357;DHT22;7778;48.792;9.260;2022-09-03T06:44:48;18.10;99.90
15357;DHT22;7778;48.792;9.260;2022-09-03T06:47:36;18.20;99.90
15357;DHT22;7778;48.792;9.260;2022-09-03T06:50:22;18.30;99.90
15357;DHT22;7778;48.792;9.260;2022-09-03T06:53:08;18.40;99.90
15357;DHT22;7778;48.792;9.260;2022-09-03T06:55:55;18.30;99.90
15357;DHT22;7778;48.792;9.260;2022-09-03T06:58:43;18.40;99.90
15357;DHT22;7778;48.792;9.260;2022-09-03T07:01:30;18.40;99.90
15357;DHT22;7778;48.792;9.260;2022-09-03T07:04:19;18.30;99.90
15357;DHT22;7778;48.792;9.260;2022-09-03T07:07:08;18.30;99.90
15357;DHT22;7778;48.792;9.260;2022-09-03T07:09:56;18.40;99.90
15357;DHT22;7778;48.792;9.260;2022-09-03T07:12:42;18.50;99.90
15357;DHT22;7778;48.792;9.260;2022-09-03T07:15:27;18.60;99.90
15357;DHT22;7778;48.792;9.260;2022-09-03T07:18:13;18.90;99.90
15357;DHT22;7778;48.792;9.260;2022-09-03T07:21:01;19.20;99.90
15357;DHT22;7778;48.792;9.260;2022-09-03T07:23:50;19.30;99.90
15357;DHT22;7778;48.792;9.260;2022-09-03T07:26:38;19.40;99.90
15357;DHT22;7778;48.792;9.260;2022-09-03T07:29:27;19.40;99.90
15357;DHT22;7778;48.792;9.260;2022-09-03T07:32:13;19.40;99.90
15357;DHT22;7778;48.792;9.260;2022-09-03T07:34:58;19.60;99.90
15357;DHT22;7778;48.792;9.260;2022-09-03T07:37:45;19.60;99.90
15357;DHT22;7778;48.792;9.260;2022-09-03T07:40:31;19.80;99.90
15357;DHT22;7778;48.792;9.260;2022-09-03T07:43:17;19.90;99.90
15357;DHT22;7778;48.792;9.260;2022-09-03T07:46:03;20.00;99.90
15357;DHT22;7778;48.792;9.260;2022-09-03T07:48:51;20.20;99.90
15357;DHT22;7778;48.792;9.260;2022-09-03T07:51:38;20.70;99.90
15357;DHT22;7778;48.792;9.260;2022-09-03T07:54:25;21.10;99.90
15357;DHT22;7778;48.792;9.260;2022-09-03T07:57:11;21.30;99.90
15357;DHT22;7778;48.792;9.260;2022-09-03T07:59:57;22.30;99.90
15357;DHT22;7778;48.792;9.260;2022-09-03T08:02:42;24.00;99.90
15357;DHT22;7778;48.792;9.260;2022-09-03T08:05:28;25.00;99.90
15357;DHT22;7778;48.792;9.260;2022-09-03T08:08:13;25.20;99.90
15357;DHT22;7778;48.792;9.260;2022-09-03T08:11:07;25.00;99.90
15357;DHT22;7778;48.792;9.260;2022-09-03T08:13:55;24.90;99.90
15357;DHT22;7778;48.792;9.260;2022-09-03T08:16:45;23.70;99.90
15357;DHT22;7778;48.792;9.260;2022-09-03T08:19:31;23.30;99.90
15357;DHT22;7778;48.792;9.260;2022-09-03T08:22:17;22.60;99.90
15357;DHT22;7778;48.792;9.260;2022-09-03T08:25:04;22.60;99.90
15357;DHT22;7778;48.792;9.260;2022-09-03T08:27:52;22.50;99.90
15357;DHT22;7778;48.792;9.260;2022-09-03T08:30:38;22.90;99.90
15357;DHT22;7778;48.792;9.260;2022-09-03T08:33:24;23.20;99.90
15357;DHT22;7778;48.792;9.260;2022-09-03T08:36:22;23.70;99.90
15357;DHT22;7778;48.792;9.260;2022-09-03T08:39:10;24.10;99.90
15357;DHT22;7778;48.792;9.260;2022-09-03T08:42:15;25.70;99.90
15357;DHT22;7778;48.792;9.260;2022-09-03T08:45:09;26.60;99.90
15357;DHT22;7778;48.792;9.260;2022-09-03T08:48:03;26.90;99.90
15357;DHT22;7778;48.792;9.260;2022-09-03T08:50:51;27.80;99.90
15357;DHT22;7778;48.792;9.260;2022-09-03T08:53:46;29.40;99.90
15357;DHT22;7778;48.792;9.260;2022-09-03T08:56:37;29.30;99.90
15357;DHT22;7778;48.792;9.260;2022-09-03T08:59:25;28.20;99.90
15357;DHT22;7778;48.792;9.260;2022-09-03T09:02:19;27.10;99.90
15357;DHT22;7778;48.792;9.260;2022-09-03T09:05:12;25.90;99.90
15357;DHT22;7778;48.792;9.260;2022-09-03T09:08:07;24.90;99.90
15357;DHT22;7778;48.792;9.260;2022-09-03T09:11:01;24.40;99.90
15357;DHT22;7778;48.792;9.260;2022-09-03T09:13:55;24.50;99.90
15357;DHT22;7778;48.792;9.260;2022-09-03T09:16:49;24.50;99.90
15357;DHT22;7778;48.792;9.260;2022-09-03T09:19:49;24.50;99.90
15357;DHT22;7778;48.792;9.260;2022-09-03T09:22:45;24.60;99.90
15357;DHT22;7778;48.792;9.260;2022-09-03T09:25:42;24.90;99.90
15357;DHT22;7778;48.792;9.260;2022-09-03T09:28:34;25.00;99.90
15357;DHT22;7778;48.792;9.260;2022-09-03T09:31:22;25.10;99.90
15357;DHT22;7778;48.792;9.260;2022-09-03T09:34:08;24.60;99.90
15357;DHT22;7778;48.792;9.260;2022-09-03T09:36:55;24.30;99.90
15357;DHT22;7778;48.792;9.260;2022-09-03T09:39:53;24.00;99.90
15357;DHT22;7778;48.792;9.260;2022-09-03T09:42:40;23.60;99.90
15357;DHT22;7778;48.792;9.260;2022-09-03T09:45:26;23.50;99.90
15357;DHT22;7778;48.792;9.260;2022-09-03T09:48:19;23.80;99.90
15357;DHT22;7778;48.792;9.260;2022-09-03T09:51:11;24.50;99.90
15357;DHT22;7778;48.792;9.260;2022-09-03T09:54:03;27.30;99.90
15357;DHT22;7778;48.792;9.260;2022-09-03T09:57:02;29.60;99.90
15357;DHT22;7778;48.792;9.260;2022-09-03T10:00:05;29.90;99.90
15357;DHT22;7778;48.792;9.260;2022-09-03T10:02:54;29.60;99.90
15357;DHT22;7778;48.792;9.260;2022-09-03T10:05:39;29.70;99.90
15357;DHT22;7778;48.792;9.260;2022-09-03T10:08:27;28.70;99.90
15357;DHT22;7778;48.792;9.260;2022-09-03T10:11:16;27.80;99.90
15357;DHT22;7778;48.792;9.260;2022-09-03T10:14:03;27.60;99.90
15357;DHT22;7778;48.792;9.260;2022-09-03T10:16:56;27.30;99.90
15357;DHT22;7778;48.792;9.260;2022-09-03T10:19:54;26.70;99.90
15357;DHT22;7778;48.792;9.260;2022-09-03T10:23:06;25.80;99.90
15357;DHT22;7778;48.792;9.260;2022-09-03T10:26:01;24.50;99.90
15357;DHT22;7778;48.792;9.260;2022-09-03T10:28:56;24.30;99.90
15357;DHT22;7778;48.792;9.260;2022-09-03T10:31:58;24.20;99.90
15357;DHT22;7778;48.792;9.260;2022-09-03T10:35:01;24.40;99.90
15357;DHT22;7778;48.792;9.260;2022-09-03T10:37:57;24.90;99.90
15357;DHT22;7778;48.792;9.260;2022-09-03T10:40:53;25.20;99.90
15357;DHT22;7778;48.792;9.260;2022-09-03T10:44:11;25.30;99.90
15357;DHT22;7778;48.792;9.260;2022-09-03T10:47:34;25.80;99.90
15357;DHT22;7778;48.792;9.260;2022-09-03T10:50:28;26.30;99.90
15357;DHT22;7778;48.792;9.260;2022-09-03T10:53:31;26.90;99.90
15357;DHT22;7778;48.792;9.260;2022-09-03T10:56:30;26.20;99.90
15357;DHT22;7778;48.792;9.260;2022-09-03T10:59:38;25.80;99.90
15357;DHT22;7778;48.792;9.260;2022-09-03T11:03:06;26.30;99.90
15357;DHT22;7778;48.792;9.260;2022-09-03T11:06:08;26.30;99.90
15357;DHT22;7778;48.792;9.260;2022-09-03T11:08:59;26.30;99.90
15357;DHT22;7778;48.792;9.260;2022-09-03T11:12:01;26.10;99.90
15357;DHT22;7778;48.792;9.260;2022-09-03T11:14:55;25.40;99.90
15357;DHT22;7778;48.792;9.260;2022-09-03T11:17:46;25.10;99.90
15357;DHT22;7778;48.792;9.260;2022-09-03T11:20:34;25.00;99.90
15357;DHT22;7778;48.792;9.260;2022-09-03T11:23:21;24.80;99.90
15357;DHT22;7778;48.792;9.260;2022-09-03T11:26:12;24.70;99.90
15357;DHT22;7778;48.792;9.260;2022-09-03T11:29:04;24.70;99.90
15357;DHT22;7778;48.792;9.260;2022-09-03T11:32:00;24.70;99.90
15357;DHT22;7778;48.792;9.260;2022-09-03T11:34:53;24.60;99.90
15357;DHT22;7778;48.792;9.260;2022-09-03T11:37:48;24.50;99.90
15357;DHT22;7778;48.792;9.260;2022-09-03T11:40:41;24.60;99.90
15357;DHT22;7778;48.792;9.260;2022-09-03T11:43:40;24.80;99.90
15357;DHT22;7778;48.792;9.260;2022-09-03T11:46:28;24.70;99.90
15357;DHT22;7778;48.792;9.260;2022-09-03T11:49:27;24.10;99.90
15357;DHT22;7778;48.792;9.260;2022-09-03T11:52:24;24.10;99.90
15357;DHT22;7778;48.792;9.260;2022-09-03T11:55:11;24.20;99.90
15357;DHT22;7778;48.792;9.260;2022-09-03T11:57:56;24.20;99.90
15357;DHT22;7778;48.792;9.260;2022-09-03T12:00:43;24.00;99.90
15357;DHT22;7778;48.792;9.260;2022-09-03T12:03:41;23.80;99.90
15357;DHT22;7778;48.792;9.260;2022-09-03T12:06:48;23.40;99.90
15357;DHT22;7778;48.792;9.260;2022-09-03T12:09:52;23.40;99.90
15357;DHT22;7778;48.792;9.260;2022-09-03T12:12:54;23.30;99.90
15357;DHT22;7778;48.792;9.260;2022-09-03T12:16:06;23.20;99.90
15357;DHT22;7778;48.792;9.260;2022-09-03T12:19:08;23.10;99.90
15357;DHT22;7778;48.792;9.260;2022-09-03T12:21:59;22.90;99.90
15357;DHT22;7778;48.792;9.260;2022-09-03T12:24:47;22.70;99.90
15357;DHT22;7778;48.792;9.260;2022-09-03T12:27:34;22.60;99.90
15357;DHT22;7778;48.792;9.260;2022-09-03T12:30:22;22.40;99.90
15357;DHT22;7778;48.792;9.260;2022-09-03T12:33:15;22.20;99.90
15357;DHT22;7778;48.792;9.260;2022-09-03T12:36:02;21.90;99.90
15357;DHT22;7778;48.792;9.260;2022-09-03T12:38:49;21.60;99.90
15357;DHT22;7778;48.792;9.260;2022-09-03T12:41:37;21.40;99.90
15357;DHT22;7778;48.792;9.260;2022-09-03T12:44:27;20.90;99.90
15357;DHT22;7778;48.792;9.260;2022-09-03T12:47:16;20.00;99.90
15357;DHT22;7778;48.792;9.260;2022-09-03T12:50:06;19.60;99.90
15357;DHT22;7778;48.792;9.260;2022-09-03T12:52:54;19.30;99.90
15357;DHT22;7778;48.792;9.260;2022-09-03T12:55:45;19.10;99.90
15357;DHT22;7778;48.792;9.260;2022-09-03T12:58:34;19.10;99.90
15357;DHT22;7778;48.792;9.260;2022-09-03T13:01:26;19.10;99.90
15357;DHT22;7778;48.792;9.260;2022-09-03T13:04:17;19.10;99.90
15357;DHT22;7778;48.792;9.260;2022-09-03T13:07:06;18.90;99.90
15357;DHT22;7778;48.792;9.260;2022-09-03T13:10:02;18.70;99.90
15357;DHT22;7778;48.792;9.260;2022-09-03T13:12:56;18.40;99.90
15357;DHT22;7778;48.792;9.260;2022-09-03T13:15:55;18.40;99.90
15357;DHT22;7778;48.792;9.260;2022-09-03T13:19:05;18.00;99.90
15357;DHT22;7778;48.792;9.260;2022-09-03T13:22:03;17.80;99.90
15357;DHT22;7778;48.792;9.260;2022-09-03T13:25:07;17.80;99.90
15357;DHT22;7778;48.792;9.260;2022-09-03T13:28:10;17.60;99.90
15357;DHT22;7778;48.792;9.260;2022-09-03T13:31:23;17.40;99.90
15357;DHT22;7778;48.792;9.260;2022-09-03T13:34:19;17.40;99.90
15357;DHT22;7778;48.792;9.260;2022-09-03T13:37:12;17.50;99.90
15357;DHT22;7778;48.792;9.260;2022-09-03T13:40:14;17.60;99.90
15357;DHT22;7778;48.792;9.260;2022-09-03T13:43:09;17.80;99.90
15357;DHT22;7778;48.792;9.260;2022-09-03T13:46:06;17.90;99.90
15357;DHT22;7778;48.792;9.260;2022-09-03T13:48:58;18.20;99.90
15357;DHT22;7778;48.792;9.260;2022-09-03T13:52:17;18.70;99.90
15357;DHT22;7778;48.792;9.260;2022-09-03T13:55:09;19.20;99.90
15357;DHT22;7778;48.792;9.260;2022-09-03T13:58:00;19.60;99.90
15357;DHT22;7778;48.792;9.260;2022-09-03T14:00:53;19.60;99.90
15357;DHT22;7778;48.792;9.260;2022-09-03T14:03:50;19.30;99.90
15357;DHT22;7778;48.792;9.260;2022-09-03T14:06:40;19.20;99.90
15357;DHT22;7778;48.792;9.260;2022-09-03T14:09:34;19.10;99.90
15357;DHT22;7778;48.792;9.260;2022-09-03T14:12:33;18.90;99.90
15357;DHT22;7778;48.792;9.260;2022-09-03T14:15:31;18.70;99.90
15357;DHT22;7778;48.792;9.260;2022-09-03T14:18:34;18.70;99.90
15357;DHT22;7778;48.792;9.260;2022-09-03T14:21:29;18.70;99.90
15357;DHT22;7778;48.792;9.260;2022-09-03T14:24:23;18.80;99.90
15357;DHT22;7778;48.792;9.260;2022-09-03T14:27:11;18.90;99.90
15357;DHT22;7778;48.792;9.260;2022-09-03T14:29:59;19.10;99.90
15357;DHT22;7778;48.792;9.260;2022-09-03T14:32:56;19.40;99.90
15357;DHT22;7778;48.792;9.260;2022-09-03T14:36:01;19.60;99.90
15357;DHT22;7778;48.792;9.260;2022-09-03T14:39:01;19.60;99.90
15357;DHT22;7778;48.792;9.260;2022-09-03T14:42:13;19.60;99.90
15357;DHT22;7778;48.792;9.260;2022-09-03T14:45:46;19.20;99.90
15357;DHT22;7778;48.792;9.260;2022-09-03T14:49:03;19.30;99.90
15357;DHT22;7778;48.792;9.260;2022-09-03T14:52:08;19.30;99.90
15357;DHT22;7778;48.792;9.260;2022-09-03T14:55:18;19.40;99.90
15357;DHT22;7778;48.792;9.260;2022-09-03T14:58:20;19.50;99.90
15357;DHT22;7778;48.792;9.260;2022-09-03T15:01:11;19.60;99.90
15357;DHT22;7778;48.792;9.260;2022-09-03T15:07:33;19.70;99.90
15357;DHT22;7778;48.792;9.260;2022-09-03T15:10:26;20.00;99.90
15357;DHT22;7778;48.792;9.260;2022-09-03T15:13:17;20.20;99.90
15357;DHT22;7778;48.792;9.260;2022-09-03T15:16:17;20.20;99.90
15357;DHT22;7778;48.792;9.260;2022-09-03T15:19:17;20.30;99.90
15357;DHT22;7778;48.792;9.260;2022-09-03T15:22:55;20.30;99.90
15357;DHT22;7778;48.792;9.260;2022-09-03T15:29:35;20.30;99.90
15357;DHT22;7778;48.792;9.260;2022-09-03T15:32:43;20.50;99.90
15357;DHT22;7778;48.792;9.260;2022-09-03T15:35:42;20.80;99.90
15357;DHT22;7778;48.792;9.260;2022-09-03T15:38:43;21.00;99.90
15357;DHT22;7778;48.792;9.260;2022-09-03T15:41:51;21.20;99.90
15357;DHT22;7778;48.792;9.260;2022-09-03T15:44:43;21.30;99.90
15357;DHT22;7778;48.792;9.260;2022-09-03T15:47:39;21.40;99.90
15357;DHT22;7778;48.792;9.260;2022-09-03T15:50:33;21.20;99.90
15357;DHT22;7778;48.792;9.260;2022-09-03T15:53:28;21.20;99.90
15357;DHT22;7778;48.792;9.260;2022-09-03T15:56:26;21.10;99.90
15357;DHT22;7778;48.792;9.260;2022-09-03T15:59:17;21.10;99.90
15357;DHT22;7778;48.792;9.260;2022-09-03T16:02:06;21.20;99.90
15357;DHT22;7778;48.792;9.260;2022-09-03T16:05:03;21.30;99.90
15357;DHT22;7778;48.792;9.260;2022-09-03T16:08:09;21.30;99.90
15357;DHT22;7778;48.792;9.260;2022-09-03T16:11:06;21.30;99.90
15357;DHT22;7778;48.792;9.260;2022-09-03T16:14:04;21.20;99.90
15357;DHT22;7778;48.792;9.260;2022-09-03T16:16:56;21.10;99.90
15357;DHT22;7778;48.792;9.260;2022-09-03T16:19:47;21.10;99.90
15357;DHT22;7778;48.792;9.260;2022-09-03T16:22:43;21.10;99.90
15357;DHT22;7778;48.792;9.260;2022-09-03T16:25:34;20.80;99.90
15357;DHT22;7778;48.792;9.260;2022-09-03T16:28:35;20.60;99.90
15357;DHT22;7778;48.792;9.260;2022-09-03T16:31:47;20.60;99.90
15357;DHT22;7778;48.792;9.260;2022-09-03T16:34:44;20.60;99.90
15357;DHT22;7778;48.792;9.260;2022-09-03T16:37:45;20.60;99.90
15357;DHT22;7778;48.792;9.260;2022-09-03T16:40:56;20.60;99.90
15357;DHT22;7778;48.792;9.260;2022-09-03T16:43:53;20.50;99.90
15357;DHT22;7778;48.792;9.260;2022-09-03T16:46:50;20.50;99.90
15357;DHT22;7778;48.792;9.260;2022-09-03T16:49:51;20.40;99.90
15357;DHT22;7778;48.792;9.260;2022-09-03T16:52:48;20.30;99.90
15357;DHT22;7778;48.792;9.260;2022-09-03T16:55:55;20.40;99.90
15357;DHT22;7778;48.792;9.260;2022-09-03T16:58:52;20.30;99.90
15357;DHT22;7778;48.792;9.260;2022-09-03T17:01:58;20.40;99.90
15357;DHT22;7778;48.792;9.260;2022-09-03T17:05:03;20.50;99.90
15357;DHT22;7778;48.792;9.260;2022-09-03T17:08:12;20.50;99.90
15357;DHT22;7778;48.792;9.260;2022-09-03T17:11:15;20.50;99.90
15357;DHT22;7778;48.792;9.260;2022-09-03T17:14:23;20.60;99.90
15357;DHT22;7778;48.792;9.260;2022-09-03T17:17:28;20.60;99.90
15357;DHT22;7778;48.792;9.260;2022-09-03T17:20:27;20.80;99.90
15357;DHT22;7778;48.792;9.260;2022-09-03T17:26:52;20.70;99.90
15357;DHT22;7778;48.792;9.260;2022-09-03T17:29:52;20.70;99.90
15357;DHT22;7778;48.792;9.260;2022-09-03T17:36:28;20.70;99.90
15357;DHT22;7778;48.792;9.260;2022-09-03T17:39:42;20.70;99.90
15357;DHT22;7778;48.792;9.260;2022-09-03T17:42:47;20.50;99.90
15357;DHT22;7778;48.792;9.260;2022-09-03T17:45:45;20.40;99.90
15357;DHT22;7778;48.792;9.260;2022-09-03T17:48:46;20.30;99.90
15357;DHT22;7778;48.792;9.260;2022-09-03T17:51:41;20.20;99.90
15357;DHT22;7778;48.792;9.260;2022-09-03T17:54:37;20.10;99.90
15357;DHT22;7778;48.792;9.260;2022-09-03T17:57:29;20.00;99.90
15357;DHT22;7778;48.792;9.260;2022-09-03T18:00:22;20.00;99.90
15357;DHT22;7778;48.792;9.260;2022-09-03T18:03:15;19.90;99.90
15357;DHT22;7778;48.792;9.260;2022-09-03T18:06:08;19.90;99.90
15357;DHT22;7778;48.792;9.260;2022-09-03T18:09:01;19.90;99.90
15357;DHT22;7778;48.792;9.260;2022-09-03T18:11:58;19.90;99.90
15357;DHT22;7778;48.792;9.260;2022-09-03T18:14:54;19.90;99.90
15357;DHT22;7778;48.792;9.260;2022-09-03T18:17:47;19.90;99.90
15357;DHT22;7778;48.792;9.260;2022-09-03T18:20:41;19.80;99.90
15357;DHT22;7778;48.792;9.260;2022-09-03T18:23:53;19.80;99.90
15357;DHT22;7778;48.792;9.260;2022-09-03T18:27:05;19.70;99.90
15357;DHT22;7778;48.792;9.260;2022-09-03T18:30:14;19.60;99.90
15357;DHT22;7778;48.792;9.260;2022-09-03T18:33:22;19.50;99.90
15357;DHT22;7778;48.792;9.260;2022-09-03T18:36:26;19.40;99.90
15357;DHT22;7778;48.792;9.260;2022-09-03T18:39:31;19.30;99.90
15357;DHT22;7778;48.792;9.260;2022-09-03T18:42:43;19.20;99.90
15357;DHT22;7778;48.792;9.260;2022-09-03T18:46:04;19.10;99.90
15357;DHT22;7778;48.792;9.260;2022-09-03T18:49:17;19.00;99.90
15357;DHT22;7778;48.792;9.260;2022-09-03T18:52:32;19.10;99.90